Time,TemperatureF,DewpointF,PressureIn,WindDirection,WindDirectionDegrees,WindSpeedMPH,WindSpeedGustMPH,Humidity,HourlyPrecipIn,Conditions,Clouds,dailyrainin,SoftwareType,DateUTC
2013-01-06 16:03:00,41.0,18.0,-100.00,South,173,6.0,12.0,39,-99.99,,,-99.99,,2013-01-06 21:03:00,
2013-01-06 16:22:00,41.0,16.0,-100.00,South,170,8.0,12.0,36,-99.99,,,-99.99,,2013-01-06 21:22:00,
2013-01-06 16:33:00,41.0,16.0,-100.00,SSE,164,8.0,14.0,36,-99.99,,,-99.99,,2013-01-06 21:33:00,
2013-01-06 16:42:00,41.0,16.0,-100.00,SSE,164,8.0,14.0,36,-99.99,,,-99.99,,2013-01-06 21:42:00,
2013-01-06 16:52:00,41.0,15.0,-100.00,South,176,9.0,14.0,35,-99.99,,,-99.99,,2013-01-06 21:52:00,
2013-01-06 17:02:00,41.0,15.0,-100.00,SSE,168,9.0,14.0,34,-99.99,,,-99.99,,2013-01-06 22:02:00,
2013-01-06 17:12:00,41.0,15.0,-100.00,SSE,163,9.0,14.0,35,-99.99,,,-99.99,,2013-01-06 22:12:00,
2013-01-06 17:22:00,41.0,16.0,-100.00,SSE,163,9.0,15.0,36,-99.99,,,-99.99,,2013-01-06 22:22:00,
2013-01-06 17:33:00,41.0,19.0,-100.00,South,175,9.0,16.0,41,-99.99,,,-99.99,,2013-01-06 22:33:00,
2013-01-06 17:43:00,41.0,22.0,-100.00,South,173,8.0,15.0,46,-99.99,,,-99.99,,2013-01-06 22:43:00,
2013-01-06 17:52:00,41.0,22.0,-100.00,South,179,10.0,15.0,47,-99.99,,,-99.99,,2013-01-06 22:52:00,
2013-01-06 18:02:00,41.0,23.0,-100.00,South,186,10.0,14.0,49,-99.99,,,-99.99,,2013-01-06 23:02:00,
2013-01-06 18:12:00,41.0,23.0,-100.00,South,176,9.0,14.0,49,-99.99,,,-99.99,,2013-01-06 23:12:00,
2013-01-06 18:22:00,41.0,24.0,-100.00,South,176,7.0,12.0,50,-99.99,,,-99.99,,2013-01-06 23:22:00,
2013-01-06 18:33:00,41.0,24.0,-100.00,South,183,8.0,16.0,50,-99.99,,,-99.99,,2013-01-06 23:33:00,
2013-01-06 18:42:00,41.0,24.0,-100.00,South,180,6.0,12.0,50,-99.99,,,-99.99,,2013-01-06 23:42:00,
2013-01-06 18:52:00,39.0,23.0,-100.00,South,176,8.0,12.0,51,-99.99,,,-99.99,,2013-01-06 23:52:00,
2013-01-06 19:02:00,39.0,24.0,-100.00,South,179,9.0,12.0,54,-99.99,,,-99.99,,2013-01-07 00:02:00,
2013-01-06 19:12:00,37.0,23.0,-100.00,South,173,8.0,12.0,56,-99.99,,,-99.99,,2013-01-07 00:12:00,
2013-01-06 19:23:00,37.0,24.0,-100.00,South,173,6.0,12.0,57,-99.99,,,-99.99,,2013-01-07 00:23:00,
2013-01-06 19:33:00,37.0,24.0,-100.00,SSE,168,8.0,12.0,58,-99.99,,,-99.99,,2013-01-07 00:33:00,
2013-01-06 19:42:00,37.0,24.0,-100.00,South,172,8.0,14.0,58,-99.99,,,-99.99,,2013-01-07 00:42:00,
2013-01-06 19:52:00,36.0,23.0,-100.00,South,172,8.0,14.0,59,-99.99,,,-99.99,,2013-01-07 00:52:00,
2013-01-06 20:02:00,36.0,23.0,-100.00,SSE,166,11.0,14.0,60,-99.99,,,-99.99,,2013-01-07 01:02:00,
2013-01-06 20:12:00,36.0,23.0,-100.00,SSE,168,8.0,13.0,61,-99.99,,,-99.99,,2013-01-07 01:12:00,
2013-01-06 20:23:00,36.0,24.0,-100.00,South,169,10.0,14.0,62,-99.99,,,-99.99,,2013-01-07 01:23:00,
2013-01-06 20:32:00,36.0,24.0,-100.00,South,170,13.0,16.0,62,-99.99,,,-99.99,,2013-01-07 01:32:00,
2013-01-06 20:42:00,36.0,24.0,-100.00,SSE,165,14.0,17.0,63,-99.99,,,-99.99,,2013-01-07 01:42:00,
2013-01-06 20:52:00,36.0,25.0,-100.00,South,170,14.0,16.0,65,-99.99,,,-99.99,,2013-01-07 01:52:00,
2013-01-06 21:02:00,34.0,24.0,-100.00,South,169,13.0,14.0,67,-99.99,,,-99.99,,2013-01-07 02:02:00,
2013-01-06 21:12:00,34.0,24.0,-100.00,SSE,166,12.0,14.0,68,-99.99,,,-99.99,,2013-01-07 02:12:00,
2013-01-06 21:22:00,34.0,25.0,-100.00,South,170,13.0,14.0,70,-99.99,,,-99.99,,2013-01-07 02:22:00,
2013-01-06 21:32:00,34.0,26.0,-100.00,South,177,11.0,13.0,72,-99.99,,,-99.99,,2013-01-07 02:32:00,
2013-01-06 21:42:00,34.0,26.0,-100.00,South,171,14.0,16.0,72,-99.99,,,-99.99,,2013-01-07 02:42:00,
2013-01-06 21:52:00,34.0,26.0,-100.00,SSE,168,13.0,14.0,73,-99.99,,,-99.99,,2013-01-07 02:52:00,
2013-01-06 22:02:00,34.0,26.0,-100.00,South,170,14.0,14.0,73,-99.99,,,-99.99,,2013-01-07 03:02:00,
2013-01-06 22:12:00,34.0,26.0,-100.00,South,174,12.0,14.0,74,-99.99,,,-99.99,,2013-01-07 03:12:00,
2013-01-06 22:22:00,34.0,27.0,-100.00,South,174,12.0,14.0,75,-99.99,,,-99.99,,2013-01-07 03:22:00,
2013-01-06 22:33:00,34.0,27.0,-100.00,South,174,11.0,14.0,75,-99.99,,,-99.99,,2013-01-07 03:33:00,
2013-01-06 22:43:00,34.0,27.0,-100.00,South,174,11.0,14.0,75,-99.99,,,-99.99,,2013-01-07 03:43:00,
2013-01-06 22:52:00,34.0,27.0,-100.00,South,171,10.0,13.0,75,-99.99,,,-99.99,,2013-01-07 03:52:00,
2013-01-06 23:02:00,34.0,27.0,-100.00,South,170,10.0,12.0,76,-99.99,,,-99.99,,2013-01-07 04:02:00,
2013-01-06 23:12:00,34.0,27.0,-100.00,South,171,10.0,11.0,76,-99.99,,,-99.99,,2013-01-07 04:12:00,
2013-01-06 23:22:00,34.0,27.0,-100.00,South,171,10.0,11.0,76,-99.99,,,-99.99,,2013-01-07 04:22:00,
2013-01-06 23:32:00,32.0,26.0,-100.00,South,176,10.0,12.0,77,-99.99,,,-99.99,,2013-01-07 04:32:00,
2013-01-06 23:42:00,32.0,26.0,-100.00,South,179,12.0,14.0,77,-99.99,,,-99.99,,2013-01-07 04:42:00,
2013-01-06 23:52:00,32.0,26.0,-100.00,South,169,12.0,14.0,78,-99.99,,,-99.99,,2013-01-07 04:52:00,